Time;durP1;ratioP1;P1;durP2;ratioP2;P2;SDS_P1;SDS_P2;PMS_P1;PMS_P2;Temp;Humidity;BMP_temperature;BMP_pressure;BME280_temperature;BME280_humidity;BME280_pressure;Samples;Min_cycle;Max_cycle;Signal;HPM_P1;HPM_P2
2022/12/24 00:01:21;;;;;;;38.27;17.90;;;6.00;99.90;;;;;;5052187;28;20255;-51
2022/12/24 00:03:50;;;;;;;43.73;19.87;;;6.00;99.90;;;;;;5052415;28;20520;-51
2022/12/24 00:06:21;;;;;;;52.10;20.93;;;5.90;99.90;;;;;;5052976;28;21040;-48
2022/12/24 00:08:49;;;;;;;42.93;19.93;;;6.00;99.90;;;;;;5051823;28;20466;-48
2022/12/24 00:11:20;;;;;;;43.23;19.30;;;6.00;99.90;;;;;;5052501;28;20234;-49
2022/12/24 00:13:48;;;;;;;48.40;21.10;;;6.10;99.90;;;;;;5052626;28;20232;-50
2022/12/24 00:16:16;;;;;;;54.40;23.40;;;6.00;99.90;;;;;;5052330;28;20233;-49
2022/12/24 00:18:44;;;;;;;59.87;24.27;;;6.00;99.90;;;;;;5051983;28;21274;-51
2022/12/24 00:21:15;;;;;;;47.57;22.93;;;5.90;99.90;;;;;;5052243;28;20273;-49
2022/12/24 00:23:43;;;;;;;51.30;22.53;;;5.90;99.90;;;;;;5052562;28;20582;-49
2022/12/24 00:26:11;;;;;;;44.87;20.70;;;5.80;99.90;;;;;;5052568;28;20236;-50
2022/12/24 00:28:41;;;;;;;50.20;22.20;;;5.90;99.90;;;;;;5052030;28;20788;-52
2022/12/24 00:31:12;;;;;;;51.70;23.13;;;6.00;99.90;;;;;;5032101;28;20529;-50
2022/12/24 00:33:40;;;;;;;49.50;22.10;;;5.90;99.90;;;;;;5051683;28;20227;-51
2022/12/24 00:36:09;;;;;;;41.83;20.57;;;5.80;99.90;;;;;;5052343;28;20700;-49
2022/12/24 00:38:37;;;;;;;43.80;21.47;;;5.90;99.90;;;;;;5052052;28;20259;-52
2022/12/24 00:41:23;;;;;;;42.00;21.80;;;5.90;99.90;;;;;;5052486;28;20224;-51
2022/12/24 00:43:54;;;;;;;41.57;21.60;;;5.80;99.90;;;;;;5052426;28;20985;-51
2022/12/24 00:46:23;;;;;;;40.23;20.33;;;5.80;99.90;;;;;;5051768;28;20490;-52
2022/12/24 00:48:51;;;;;;;38.20;20.57;;;5.80;99.90;;;;;;5052001;28;20242;-49
2022/12/24 00:51:20;;;;;;;45.43;21.93;;;5.80;99.90;;;;;;5052225;28;20224;-48
2022/12/24 00:53:48;;;;;;;38.50;20.37;;;5.80;99.90;;;;;;5051927;28;20469;-51
2022/12/24 00:56:17;;;;;;;40.17;20.37;;;5.80;99.90;;;;;;5052184;28;20598;-49
2022/12/24 00:58:45;;;;;;;35.40;17.90;;;5.80;99.90;;;;;;5051671;28;20960;-49
2022/12/24 01:01:15;;;;;;;33.60;18.67;;;5.80;99.90;;;;;;5051700;28;20659;-52
2022/12/24 01:03:43;;;;;;;34.10;18.13;;;5.70;99.90;;;;;;5052282;28;20508;-50
2022/12/24 01:06:13;;;;;;;33.43;17.93;;;5.70;99.90;;;;;;5035719;28;20509;-52
2022/12/24 01:08:42;;;;;;;37.70;18.60;;;5.70;99.90;;;;;;5035467;28;20225;-50
2022/12/24 01:11:11;;;;;;;36.93;18.93;;;5.70;99.90;;;;;;5036000;28;20993;-50
2022/12/24 01:13:39;;;;;;;34.90;18.47;;;5.70;99.90;;;;;;5035708;28;20240;-48
2022/12/24 01:16:16;;;;;;;31.23;16.63;;;5.80;99.90;;;;;;5047925;28;20257;-50
2022/12/24 01:18:44;;;;;;;31.23;17.23;;;5.70;99.90;;;;;;5055252;28;20259;-48
2022/12/24 01:21:13;;;;;;;35.17;17.97;;;5.70;99.90;;;;;;5055444;28;20464;-49
2022/12/24 01:23:41;;;;;;;33.83;18.10;;;5.70;99.90;;;;;;5055483;28;20235;-49
2022/12/24 01:26:10;;;;;;;31.23;16.70;;;5.60;99.90;;;;;;5055594;28;20240;-50
2022/12/24 01:28:39;;;;;;;30.37;16.87;;;5.60;99.90;;;;;;5055293;28;20642;-50
2022/12/24 01:31:11;;;;;;;31.00;17.23;;;5.60;99.90;;;;;;5054872;28;20715;-49
2022/12/24 01:33:41;;;;;;;35.10;17.90;;;5.70;99.90;;;;;;5055149;28;20254;-51
2022/12/24 01:36:10;;;;;;;31.30;17.37;;;5.70;99.90;;;;;;5035248;28;20477;-50
2022/12/24 01:38:38;;;;;;;31.30;17.03;;;5.70;99.90;;;;;;5035166;28;20835;-48
2022/12/24 01:43:51;;;;;;;32.13;17.60;;;5.70;99.90;;;;;;5034955;28;20475;-51
2022/12/24 01:46:23;;;;;;;31.70;16.90;;;5.70;99.90;;;;;;5051009;28;20569;-51
2022/12/24 01:48:56;;;;;;;27.47;15.23;;;5.70;99.90;;;;;;5054803;28;20482;-50
2022/12/24 01:51:30;;;;;;;33.77;17.27;;;5.60;99.90;;;;;;5054716;28;20829;-51
2022/12/24 01:54:03;;;;;;;31.57;16.87;;;5.70;99.90;;;;;;5055146;28;20897;-48
2022/12/24 01:56:32;;;;;;;28.87;15.83;;;5.70;99.90;;;;;;5054844;28;20484;-48
2022/12/24 01:59:05;;;;;;;36.03;17.30;;;5.70;99.90;;;;;;5054529;28;20469;-52
2022/12/24 02:01:33;;;;;;;30.73;16.13;;;5.80;99.90;;;;;;5054086;28;20239;-50
2022/12/24 02:04:09;;;;;;;33.37;16.70;;;5.80;99.90;;;;;;5054817;28;20236;-52
2022/12/24 02:06:37;;;;;;;37.03;17.50;;;5.90;99.90;;;;;;5054682;28;20683;-51
2022/12/24 02:09:06;;;;;;;32.93;16.77;;;5.80;99.90;;;;;;5054345;28;20250;-48
2022/12/24 02:11:37;;;;;;;29.13;16.33;;;5.80;99.90;;;;;;5054603;28;20565;-51
2022/12/24 02:14:06;;;;;;;34.97;16.83;;;5.90;99.90;;;;;;5054101;28;20231;-50
2022/12/24 02:16:42;;;;;;;33.10;16.27;;;5.80;99.90;;;;;;5053011;28;20232;-50
2022/12/24 02:19:47;;;;;;;34.83;17.57;;;5.70;99.90;;;;;;5054188;28;20853;-49
2022/12/24 02:22:17;;;;;;;36.80;17.83;;;5.70;99.90;;;;;;5047125;28;20234;-49
2022/12/24 02:25:20;;;;;;;34.10;17.70;;;5.70;99.90;;;;;;5054358;28;20476;-48
2022/12/24 02:27:56;;;;;;;37.13;17.13;;;5.80;99.90;;;;;;5034458;28;20261;-50
2022/12/24 02:30:30;;;;;;;35.00;17.43;;;5.80;99.90;;;;;;5053651;28;20465;-49
2022/12/24 02:33:09;;;;;;;33.70;17.70;;;5.80;99.90;;;;;;5053905;28;20230;-50
2022/12/24 02:35:44;;;;;;;32.47;17.07;;;5.80;99.90;;;;;;5054123;28;20965;-51
2022/12/24 02:38:20;;;;;;;33.80;16.97;;;5.80;99.90;;;;;;5054102;28;20465;-48
2022/12/24 02:40:52;;;;;;;33.43;17.07;;;5.80;99.90;;;;;;5053718;28;20480;-49
2022/12/24 02:43:24;;;;;;;33.00;17.57;;;5.70;99.90;;;;;;5053840;28;20913;-48
2022/12/24 02:45:56;;;;;;;33.20;16.87;;;5.60;99.90;;;;;;5053544;28;20486;-50
2022/12/24 02:48:28;;;;;;;34.20;17.67;;;5.70;99.90;;;;;;5036574;28;20607;-50
2022/12/24 02:50:59;;;;;;;33.73;16.37;;;5.60;99.90;;;;;;5053432;28;20481;-51
2022/12/24 02:53:27;;;;;;;32.87;16.67;;;5.70;99.90;;;;;;5053770;28;20247;-51
2022/12/24 02:56:11;;;;;;;31.60;16.00;;;5.70;99.90;;;;;;5054289;28;20220;-50
2022/12/24 02:58:48;;;;;;;32.90;16.60;;;5.70;99.90;;;;;;5053312;28;20465;-52
2022/12/24 03:01:28;;;;;;;31.87;16.93;;;5.60;99.90;;;;;;5033294;28;20249;-48
2022/12/24 03:04:08;;;;;;;32.13;16.50;;;5.70;99.90;;;;;;5052031;28;20230;-50
2022/12/24 03:06:45;;;;;;;31.07;16.63;;;5.60;99.90;;;;;;5053469;28;20239;-52
2022/12/24 03:09:19;;;;;;;29.20;15.57;;;5.60;99.90;;;;;;5053386;28;20469;-52
2022/12/24 03:11:55;;;;;;;29.00;15.30;;;5.60;99.90;;;;;;5053413;28;20832;-52
2022/12/24 03:14:25;;;;;;;30.27;16.60;;;5.70;99.90;;;;;;5053587;28;20889;-50
2022/12/24 03:16:56;;;;;;;29.53;14.87;;;5.70;99.90;;;;;;5053328;28;20470;-51
2022/12/24 03:19:25;;;;;;;29.50;15.37;;;5.80;99.90;;;;;;5053111;28;20228;-51
2022/12/24 03:21:56;;;;;;;27.43;15.30;;;5.70;99.90;;;;;;5053027;28;20485;-50
2022/12/24 03:24:24;;;;;;;30.17;15.67;;;5.70;99.90;;;;;;5053315;28;20220;-48
2022/12/24 03:26:53;;;;;;;28.40;15.03;;;5.70;99.90;;;;;;5052952;28;20249;-51
2022/12/24 03:29:21;;;;;;;25.73;14.33;;;5.60;99.90;;;;;;5052994;28;20690;-47
2022/12/24 03:31:53;;;;;;;26.83;14.67;;;5.70;99.90;;;;;;5052559;28;21019;-51
2022/12/24 03:34:22;;;;;;;26.80;14.63;;;5.60;99.90;;;;;;5052758;28;20564;-50
2022/12/24 03:36:50;;;;;;;25.03;14.70;;;5.60;99.90;;;;;;5053188;28;20470;-48
2022/12/24 03:39:18;;;;;;;28.07;15.70;;;5.70;99.90;;;;;;5052881;28;20231;-50
2022/12/24 03:41:47;;;;;;;22.73;12.73;;;5.60;99.90;;;;;;5052984;28;20212;-48
2022/12/24 03:44:15;;;;;;;25.13;13.40;;;5.70;99.90;;;;;;5053122;28;20796;-51
2022/12/24 03:46:43;;;;;;;30.30;15.23;;;5.70;99.90;;;;;;5052649;28;20984;-50
2022/12/24 03:49:11;;;;;;;24.13;13.47;;;5.70;99.90;;;;;;5053033;28;20480;-49
2022/12/24 03:51:41;;;;;;;29.87;14.77;;;5.70;99.90;;;;;;5052875;28;20687;-48
2022/12/24 03:54:09;;;;;;;25.93;14.03;;;5.60;99.90;;;;;;5053001;28;20242;-48
2022/12/24 03:56:37;;;;;;;27.97;15.27;;;5.60;99.90;;;;;;5052787;28;20822;-51
2022/12/24 03:59:05;;;;;;;25.23;13.37;;;5.60;99.90;;;;;;5052673;28;20220;-50
2022/12/24 04:01:33;;;;;;;26.07;14.40;;;5.70;99.90;;;;;;5052137;28;20247;-49
2022/12/24 04:04:01;;;;;;;26.03;13.73;;;5.60;99.90;;;;;;5052265;28;20482;-50
2022/12/24 04:06:29;;;;;;;25.17;13.60;;;5.60;99.90;;;;;;5052435;28;20484;-49
2022/12/24 04:09:00;;;;;;;24.53;12.60;;;5.60;99.90;;;;;;5052777;28;20809;-49
2022/12/24 04:11:28;;;;;;;30.47;15.43;;;5.70;99.90;;;;;;5052312;28;20228;-49
2022/12/24 04:13:56;;;;;;;26.87;14.00;;;5.70;99.90;;;;;;5052513;28;20228;-50
2022/12/24 04:16:24;;;;;;;30.33;15.23;;;5.60;99.90;;;;;;5052303;28;20227;-51
2022/12/24 04:18:53;;;;;;;31.77;15.53;;;5.60;99.90;;;;;;5052043;28;20231;-48
2022/12/24 04:21:21;;;;;;;28.37;13.97;;;5.70;99.90;;;;;;5052636;28;20246;-50
2022/12/24 04:23:49;;;;;;;27.70;14.63;;;5.60;99.90;;;;;;5052195;28;20227;-49
2022/12/24 04:26:18;;;;;;;29.83;14.00;;;5.60;99.90;;;;;;5052436;28;20473;-49
2022/12/24 04:28:46;;;;;;;26.73;13.30;;;5.60;99.90;;;;;;5052318;28;20238;-50
2022/12/24 04:31:16;;;;;;;30.77;17.25;;;5.60;99.90;;;;;;5051343;28;20432;-48
2022/12/24 04:33:46;;;;;;;27.40;14.50;;;5.60;99.90;;;;;;5048651;28;20220;-50
2022/12/24 04:36:16;;;;;;;25.60;14.40;;;5.50;99.90;;;;;;5052249;28;20455;-49
2022/12/24 04:38:45;;;;;;;29.57;13.73;;;5.50;99.90;;;;;;5052386;28;20453;-49
2022/12/24 04:41:15;;;;;;;26.40;13.53;;;5.60;99.90;;;;;;5056216;28;20477;-48
2022/12/24 04:43:52;;;;;;;25.13;12.53;;;5.60;99.90;;;;;;5056103;28;20252;-50
2022/12/24 04:46:23;;;;;;;26.57;13.87;;;5.50;99.90;;;;;;5056071;28;20544;-49
2022/12/24 04:48:52;;;;;;;26.77;13.50;;;5.50;99.90;;;;;;5056089;28;20952;-49
2022/12/24 04:51:21;;;;;;;27.60;14.27;;;5.50;99.90;;;;;;5049520;28;21027;-47
2022/12/24 04:53:50;;;;;;;26.17;13.17;;;5.50;99.90;;;;;;5056094;28;20474;-49
2022/12/24 04:56:20;;;;;;;26.70;13.77;;;5.60;99.90;;;;;;5055581;28;20956;-51
2022/12/24 04:58:48;;;;;;;23.03;12.97;;;5.50;99.90;;;;;;5052703;28;20474;-50
2022/12/24 05:01:20;;;;;;;25.47;13.73;;;5.50;99.90;;;;;;5055416;28;20247;-51
2022/12/24 05:03:49;;;;;;;25.70;12.90;;;5.50;99.90;;;;;;5052610;28;20513;-50
2022/12/24 05:06:19;;;;;;;22.63;12.73;;;5.50;99.90;;;;;;5056011;28;20462;-48
2022/12/24 05:08:48;;;;;;;21.63;12.00;;;5.40;99.90;;;;;;5055760;28;20482;-51
2022/12/24 05:11:16;;;;;;;22.17;12.37;;;5.40;99.90;;;;;;5055513;28;20447;-51
2022/12/24 05:13:46;;;;;;;23.50;12.00;;;5.50;99.90;;;;;;5055675;28;20485;-51
2022/12/24 05:16:16;;;;;;;22.03;12.77;;;5.60;99.90;;;;;;5056004;28;20504;-51
2022/12/24 05:18:46;;;;;;;22.67;12.57;;;5.50;99.90;;;;;;5055156;28;20333;-50
2022/12/24 05:21:16;;;;;;;21.50;12.07;;;5.50;99.90;;;;;;5055305;28;20833;-51
2022/12/24 05:26:33;;;;;;;19.83;11.30;;;5.50;99.90;;;;;;5055322;28;20255;-51
2022/12/24 05:29:02;;;;;;;22.57;12.50;;;5.40;99.90;;;;;;5055132;28;20485;-49
2022/12/24 05:31:32;;;;;;;18.60;11.50;;;5.50;99.90;;;;;;5054723;28;20509;-51
2022/12/24 05:34:02;;;;;;;22.83;12.17;;;5.60;99.90;;;;;;5054911;28;20492;-49
2022/12/24 05:36:30;;;;;;;21.30;12.20;;;5.50;99.90;;;;;;5052268;28;20480;-51
2022/12/24 05:38:59;;;;;;;24.33;12.40;;;5.50;99.90;;;;;;5053651;28;20233;-48
2022/12/24 05:41:27;;;;;;;20.20;12.50;;;5.50;99.90;;;;;;5054656;28;20462;-48
2022/12/24 05:43:55;;;;;;;20.67;11.53;;;5.40;99.90;;;;;;5055024;28;20465;-47
2022/12/24 05:46:24;;;;;;;21.63;11.70;;;5.40;99.90;;;;;;5054962;28;20468;-50
2022/12/24 05:48:53;;;;;;;18.87;10.93;;;5.40;99.90;;;;;;5054880;28;20490;-50
2022/12/24 05:51:23;;;;;;;21.10;10.63;;;5.40;99.90;;;;;;5054990;28;20486;-50
2022/12/24 05:53:51;;;;;;;21.40;11.93;;;5.50;99.90;;;;;;5055123;28;20481;-51
2022/12/24 05:56:22;;;;;;;21.93;11.70;;;5.50;99.90;;;;;;5054543;28;20457;-51
2022/12/24 05:58:51;;;;;;;19.73;11.50;;;5.40;99.90;;;;;;5054830;28;20237;-50
2022/12/24 06:01:19;;;;;;;18.60;11.50;;;5.40;99.90;;;;;;5052720;28;20521;-50
2022/12/24 06:03:49;;;;;;;22.50;11.73;;;5.40;99.90;;;;;;5053634;28;20251;-49
2022/12/24 06:06:21;;;;;;;20.23;11.77;;;5.40;99.90;;;;;;5054452;28;20474;-50
2022/12/24 06:08:52;;;;;;;20.17;11.80;;;5.40;99.90;;;;;;5054543;28;20239;-51
2022/12/24 06:11:23;;;;;;;20.30;11.53;;;5.40;99.90;;;;;;5054135;28;20226;-50
2022/12/24 06:13:52;;;;;;;20.77;11.43;;;5.40;99.90;;;;;;5054480;28;20474;-50
2022/12/24 06:16:21;;;;;;;19.93;11.77;;;5.40;99.90;;;;;;5054038;28;20487;-51
2022/12/24 06:18:50;;;;;;;19.93;11.27;;;5.40;99.90;;;;;;5044920;28;20232;-47
2022/12/24 06:21:18;;;;;;;18.30;10.70;;;5.40;99.90;;;;;;5053835;28;20249;-50
2022/12/24 06:23:46;;;;;;;19.60;10.83;;;5.40;99.90;;;;;;5054022;28;20980;-51
2022/12/24 06:26:18;;;;;;;20.43;11.67;;;5.50;99.90;;;;;;5053862;28;20473;-50
2022/12/24 06:28:47;;;;;;;19.23;11.00;;;5.40;99.90;;;;;;5052077;28;20848;-49
2022/12/24 06:31:18;;;;;;;22.47;12.13;;;5.40;99.90;;;;;;5053758;28;20557;-49
2022/12/24 06:33:46;;;;;;;21.70;11.53;;;5.50;99.90;;;;;;5050156;28;20506;-50
2022/12/24 06:36:17;;;;;;;18.33;10.17;;;5.50;99.90;;;;;;5053579;28;20472;-51
2022/12/24 06:38:45;;;;;;;18.80;10.00;;;5.50;99.90;;;;;;5053804;28;20462;-50
2022/12/24 06:41:14;;;;;;;18.50;10.93;;;5.40;99.90;;;;;;5054026;28;20825;-50
2022/12/24 06:43:46;;;;;;;18.00;9.97;;;5.40;99.90;;;;;;5053214;28;20230;-51
2022/12/24 06:46:14;;;;;;;18.47;10.40;;;5.40;99.90;;;;;;5054146;28;20267;-50
2022/12/24 06:48:43;;;;;;;16.63;9.03;;;5.50;99.90;;;;;;5053428;28;20543;-51
2022/12/24 06:51:12;;;;;;;18.37;11.07;;;5.60;99.90;;;;;;5052934;28;20227;-49
2022/12/24 06:53:40;;;;;;;18.17;10.23;;;5.50;99.90;;;;;;5050812;28;20465;-50
2022/12/24 06:56:11;;;;;;;17.13;9.87;;;5.50;99.90;;;;;;5053466;28;20465;-50
2022/12/24 06:58:40;;;;;;;19.20;10.77;;;5.50;99.90;;;;;;5049424;28;20472;-50
2022/12/24 07:01:12;;;;;;;18.23;10.00;;;5.60;99.90;;;;;;5052978;28;20906;-50
2022/12/24 07:03:40;;;;;;;18.67;11.33;;;5.60;99.90;;;;;;5053119;28;20813;-50
2022/12/24 07:06:15;;;;;;;18.13;11.17;;;5.50;99.90;;;;;;5053346;28;21025;-49
2022/12/24 07:08:43;;;;;;;18.57;10.83;;;5.50;99.90;;;;;;5053079;28;20471;-47
2022/12/24 07:11:11;;;;;;;18.93;10.60;;;5.50;99.90;;;;;;5053117;28;20842;-49
2022/12/24 07:13:39;;;;;;;17.33;10.43;;;5.50;99.90;;;;;;5050666;28;20236;-50
2022/12/24 07:16:09;;;;;;;18.13;10.23;;;5.60;99.90;;;;;;5052916;28;20480;-50
2022/12/24 07:18:37;;;;;;;15.60;10.53;;;5.70;99.90;;;;;;5050676;28;20480;-48
2022/12/24 07:21:06;;;;;;;16.00;9.97;;;5.70;99.90;;;;;;5053304;28;20477;-51
2022/12/24 07:23:34;;;;;;;14.90;9.83;;;5.60;99.90;;;;;;5050144;28;20536;-47
2022/12/24 07:26:04;;;;;;;17.07;9.93;;;5.70;99.90;;;;;;5052481;28;20519;-47
2022/12/24 07:28:32;;;;;;;15.13;9.27;;;5.80;99.90;;;;;;5052258;28;20482;-49
2022/12/24 07:31:00;;;;;;;15.00;9.70;;;5.80;99.90;;;;;;5053113;28;20511;-48
2022/12/24 07:33:30;;;;;;;17.30;10.03;;;5.70;99.90;;;;;;5052320;28;20755;-49
2022/12/24 07:36:00;;;;;;;16.30;9.83;;;5.60;99.90;;;;;;5051450;28;20480;-50
2022/12/24 07:38:28;;;;;;;16.73;9.57;;;5.50;99.90;;;;;;5053096;28;20469;-48
2022/12/24 07:40:56;;;;;;;18.70;10.50;;;5.50;99.90;;;;;;5052928;28;20814;-49
2022/12/24 07:43:25;;;;;;;17.63;10.50;;;5.50;99.90;;;;;;5052279;28;20470;-51
2022/12/24 07:45:56;;;;;;;16.33;10.57;;;5.70;99.90;;;;;;5051938;28;20231;-50
2022/12/24 07:48:25;;;;;;;16.03;9.57;;;5.60;99.90;;;;;;5052844;28;20475;-49
2022/12/24 07:50:56;;;;;;;17.30;10.53;;;5.70;99.90;;;;;;5052684;28;20465;-50
2022/12/24 07:53:25;;;;;;;15.17;9.87;;;5.70;99.90;;;;;;5052380;28;20803;-50
2022/12/24 07:55:54;;;;;;;17.43;9.80;;;5.80;99.90;;;;;;5052465;28;20465;-50
2022/12/24 07:58:22;;;;;;;16.93;9.47;;;5.90;99.90;;;;;;5052424;28;20466;-47
2022/12/24 08:00:56;;;;;;;19.20;10.40;;;5.80;99.90;;;;;;5051955;28;20560;-51
2022/12/24 08:03:24;;;;;;;14.80;9.47;;;5.70;99.90;;;;;;5052143;28;20465;-49
2022/12/24 08:05:53;;;;;;;16.90;10.27;;;5.60;99.90;;;;;;5052765;28;20323;-47
2022/12/24 08:08:22;;;;;;;18.03;11.23;;;5.60;99.90;;;;;;5052194;28;20852;-50
2022/12/24 08:10:50;;;;;;;17.93;10.43;;;5.60;99.90;;;;;;5052505;28;20469;-49
2022/12/24 08:13:18;;;;;;;15.27;9.60;;;5.60;99.90;;;;;;5052303;28;20515;-50
2022/12/24 08:15:46;;;;;;;17.07;9.40;;;5.60;99.90;;;;;;5053636;28;20222;-51
2022/12/24 08:18:15;;;;;;;13.50;8.80;;;5.70;99.90;;;;;;5056162;28;20472;-52
2022/12/24 08:20:43;;;;;;;14.83;9.03;;;5.80;99.90;;;;;;5056179;28;20474;-50
2022/12/24 08:23:11;;;;;;;15.67;9.67;;;5.80;99.90;;;;;;5056546;28;20836;-51
2022/12/24 08:25:42;;;;;;;15.03;9.30;;;5.70;99.90;;;;;;5056004;28;20472;-49
2022/12/24 08:28:10;;;;;;;15.33;9.03;;;5.80;99.90;;;;;;5052072;28;20739;-51
2022/12/24 08:30:38;;;;;;;16.87;9.53;;;5.90;99.90;;;;;;5055828;28;20261;-49
2022/12/24 08:33:06;;;;;;;16.17;9.70;;;6.00;99.90;;;;;;5055947;28;20453;-51
2022/12/24 08:35:34;;;;;;;17.03;10.60;;;5.90;99.90;;;;;;5055492;28;20223;-50
2022/12/24 08:38:02;;;;;;;16.03;9.63;;;5.80;99.90;;;;;;5056197;28;20231;-49
2022/12/24 08:40:30;;;;;;;19.37;9.43;;;5.80;99.90;;;;;;5055462;28;20233;-49
2022/12/24 08:43:02;;;;;;;18.83;11.30;;;5.70;99.90;;;;;;5055844;28;20583;-51
2022/12/24 08:45:30;;;;;;;19.17;10.50;;;5.70;99.90;;;;;;5055378;28;20231;-51
2022/12/24 08:48:09;;;;;;;15.67;10.23;;;5.70;99.90;;;;;;5055883;28;20265;-50
2022/12/24 08:50:39;;;;;;;15.47;9.77;;;5.70;99.90;;;;;;5055846;28;20280;-52
2022/12/24 08:53:08;;;;;;;18.33;10.40;;;5.90;99.90;;;;;;5056311;28;20312;-47
2022/12/24 08:55:36;;;;;;;17.40;10.20;;;5.80;99.90;;;;;;5055489;28;20228;-50
2022/12/24 08:58:05;;;;;;;16.23;10.30;;;5.80;99.90;;;;;;5042837;28;20318;-49
2022/12/24 09:00:33;;;;;;;15.67;10.33;;;5.70;99.90;;;;;;5054509;28;20243;-50
2022/12/24 09:03:01;;;;;;;16.00;10.30;;;5.70;99.90;;;;;;5054229;28;20220;-48
2022/12/24 09:05:30;;;;;;;18.47;10.40;;;5.80;99.90;;;;;;5055436;28;20238;-49
2022/12/24 09:07:58;;;;;;;16.90;10.47;;;5.90;99.90;;;;;;5056019;28;20239;-50
2022/12/24 09:10:26;;;;;;;16.03;10.30;;;6.00;99.90;;;;;;5055132;28;20490;-49
2022/12/24 09:12:54;;;;;;;16.40;9.73;;;5.90;99.90;;;;;;5055156;28;20235;-50
2022/12/24 09:15:24;;;;;;;17.17;10.83;;;5.80;99.90;;;;;;5055154;28;20224;-48
2022/12/24 09:17:52;;;;;;;17.87;10.80;;;5.90;99.90;;;;;;5058285;28;20242;-50
2022/12/24 09:20:20;;;;;;;17.80;10.67;;;5.80;99.90;;;;;;5055370;28;20267;-50
2022/12/24 09:22:48;;;;;;;20.20;11.63;;;6.00;99.90;;;;;;5052531;28;20608;-49
2022/12/24 09:25:16;;;;;;;18.30;9.60;;;6.00;99.90;;;;;;5055155;28;20235;-48
2022/12/24 09:27:44;;;;;;;17.27;10.50;;;6.10;99.90;;;;;;5055190;28;20235;-51
2022/12/24 09:30:13;;;;;;;16.03;10.20;;;6.10;99.90;;;;;;5054948;28;20250;-49
2022/12/24 09:32:43;;;;;;;16.17;10.77;;;6.00;99.90;;;;;;5055022;28;20246;-50
2022/12/24 09:35:11;;;;;;;14.93;9.90;;;5.90;99.90;;;;;;5054754;28;20219;-49
2022/12/24 09:37:39;;;;;;;18.93;10.17;;;6.10;99.90;;;;;;5054777;28;20235;-49
2022/12/24 09:40:16;;;;;;;19.53;12.20;;;6.40;99.90;;;;;;5055347;28;20687;-48
2022/12/24 09:42:52;;;;;;;18.73;11.27;;;6.40;99.90;;;;;;5054991;28;20462;-50
2022/12/24 09:45:26;;;;;;;18.70;11.77;;;6.50;99.90;;;;;;5055036;28;20645;-50
2022/12/24 09:47:59;;;;;;;21.60;12.70;;;6.50;99.90;;;;;;5054905;28;20230;-50
2022/12/24 09:50:39;;;;;;;23.07;13.43;;;6.30;99.90;;;;;;5054551;28;20248;-50
2022/12/24 09:53:15;;;;;;;20.73;11.93;;;6.40;99.90;;;;;;5054505;28;20793;-49
2022/12/24 09:55:47;;;;;;;19.57;11.50;;;6.40;99.90;;;;;;5039994;28;20576;-50
2022/12/24 09:58:20;;;;;;;21.17;11.53;;;6.30;99.90;;;;;;5047118;28;20355;-50
2022/12/24 10:00:49;;;;;;;20.97;14.43;;;6.30;99.90;;;;;;5054256;28;20232;-47
2022/12/24 10:03:18;;;;;;;24.20;13.37;;;6.30;99.90;;;;;;5054713;28;20228;-50
2022/12/24 10:06:01;;;;;;;21.03;11.77;;;6.20;99.90;;;;;;5054182;28;20232;-51
2022/12/24 10:08:35;;;;;;;24.53;16.67;;;6.40;99.90;;;;;;5053291;28;20235;-52
2022/12/24 10:11:10;;;;;;;59.70;44.67;;;6.40;99.90;;;;;;5053495;28;20238;-49
2022/12/24 10:13:50;;;;;;;24.37;15.83;;;6.30;99.90;;;;;;5053916;28;20229;-50
2022/12/24 10:16:25;;;;;;;18.07;12.70;;;6.30;99.90;;;;;;5052897;28;20993;-50
2022/12/24 10:19:03;;;;;;;21.10;15.13;;;7.60;99.90;;;;;;5052526;28;20241;-50
2022/12/24 10:21:42;;;;;;;18.73;13.23;;;7.30;99.90;;;;;;5054341;28;20228;-51
2022/12/24 10:24:17;;;;;;;18.70;13.53;;;7.20;99.90;;;;;;5053911;28;20238;-48
2022/12/24 10:26:48;;;;;;;18.27;12.90;;;7.00;99.90;;;;;;5053992;28;20234;-51
2022/12/24 10:29:19;;;;;;;18.13;13.97;;;6.90;99.90;;;;;;5054047;28;20224;-50
2022/12/24 10:31:55;;;;;;;20.23;13.67;;;6.90;99.90;;;;;;5049714;28;20246;-51
2022/12/24 10:34:30;;;;;;;16.73;13.03;;;6.80;99.90;;;;;;5060700;28;20233;-52
2022/12/24 10:37:01;;;;;;;20.33;11.90;;;6.90;99.90;;;;;;5059833;28;20233;-49
2022/12/24 10:39:29;;;;;;;21.40;13.00;;;7.00;99.90;;;;;;5065360;28;20586;-50
2022/12/24 10:42:00;;;;;;;22.17;13.93;;;7.00;99.90;;;;;;5063063;28;20239;-49
2022/12/24 10:44:31;;;;;;;25.00;13.87;;;7.10;99.90;;;;;;5062995;28;20235;-50
2022/12/24 10:47:00;;;;;;;22.30;12.93;;;7.10;99.90;;;;;;5064979;28;20624;-50
2022/12/24 10:49:36;;;;;;;31.70;14.73;;;7.50;99.90;;;;;;5066721;28;20230;-50
2022/12/24 10:52:10;;;;;;;24.70;13.97;;;7.40;99.90;;;;;;5067788;28;20269;-49
2022/12/24 10:55:07;;;;;;;26.30;13.97;;;7.40;99.90;;;;;;5066283;28;20227;-51
2022/12/24 10:57:36;;;;;;;29.93;14.27;;;7.50;99.90;;;;;;5054014;28;20579;-49
2022/12/24 11:00:06;;;;;;;29.53;13.80;;;7.50;99.90;;;;;;5056330;28;20219;-51
2022/12/24 11:02:35;;;;;;;25.80;14.43;;;7.50;99.90;;;;;;5062526;28;20262;-50
2022/12/24 11:05:26;;;;;;;29.13;14.57;;;7.60;99.90;;;;;;5053567;28;20227;-50
2022/12/24 11:08:00;;;;;;;37.93;15.60;;;7.80;99.90;;;;;;5052390;28;20235;-49
2022/12/24 11:10:29;;;;;;;32.47;15.37;;;7.90;99.90;;;;;;5052840;28;20223;-51
2022/12/24 11:12:58;;;;;;;33.30;14.40;;;8.10;99.90;;;;;;5053314;28;20232;-52
2022/12/24 11:15:46;;;;;;;40.77;14.43;;;8.10;99.90;;;;;;5052926;28;20227;-51
2022/12/24 11:18:15;;;;;;;32.37;13.80;;;8.10;99.90;;;;;;5047688;28;20232;-52
2022/12/24 11:20:50;;;;;;;33.10;13.50;;;8.20;99.90;;;;;;5041273;28;20719;-50
2022/12/24 11:23:22;;;;;;;34.73;12.53;;;8.40;99.90;;;;;;5052053;28;20316;-50
2022/12/24 11:25:51;;;;;;;31.37;12.10;;;8.50;99.90;;;;;;5053141;28;20695;-51
2022/12/24 11:28:22;;;;;;;35.17;11.20;;;8.70;99.90;;;;;;5053208;28;20223;-47
2022/12/24 11:30:59;;;;;;;31.60;10.73;;;8.60;99.90;;;;;;5052202;28;20232;-49
2022/12/24 11:33:28;;;;;;;35.40;12.50;;;8.70;99.90;;;;;;5052330;28;20322;-51
2022/12/24 11:36:02;;;;;;;35.50;11.30;;;8.70;99.90;;;;;;5050053;28;20699;-52
2022/12/24 11:38:32;;;;;;;38.47;12.13;;;8.70;99.90;;;;;;5052366;28;20238;-49
2022/12/24 11:41:10;;;;;;;35.40;11.53;;;8.70;99.90;;;;;;5052817;28;20232;-50
2022/12/24 11:43:45;;;;;;;29.83;10.97;;;8.60;99.90;;;;;;5053099;28;20695;-51
2022/12/24 11:46:36;;;;;;;35.57;11.40;;;8.70;99.90;;;;;;5045605;28;20719;-50
2022/12/24 11:49:22;;;;;;;32.73;10.57;;;8.60;99.90;;;;;;5052173;28;20236;-50
2022/12/24 11:52:19;;;;;;;30.90;10.00;;;8.60;99.90;;;;;;5052456;28;20232;-51
2022/12/24 11:55:09;;;;;;;36.33;9.80;;;8.60;99.90;;;;;;5052253;28;20228;-49
2022/12/24 11:57:52;;;;;;;36.60;10.23;;;8.60;99.90;;;;;;5039058;28;20219;-47
2022/12/24 12:00:20;;;;;;;32.30;9.30;;;8.60;99.90;;;;;;5048020;28;20223;-51
2022/12/24 12:02:51;;;;;;;29.33;8.13;;;8.60;99.90;;;;;;5050961;28;20220;-50
2022/12/24 12:05:23;;;;;;;28.67;9.03;;;8.60;99.90;;;;;;5051181;28;20690;-50
2022/12/24 12:07:56;;;;;;;36.47;8.80;;;8.60;99.90;;;;;;5052603;28;20227;-51
2022/12/24 12:10:28;;;;;;;38.00;8.60;;;8.60;99.90;;;;;;5052342;28;20242;-50
2022/12/24 12:13:00;;;;;;;28.37;8.30;;;8.70;99.90;;;;;;5052382;28;20223;-50
2022/12/24 12:15:33;;;;;;;28.37;7.93;;;8.60;99.90;;;;;;5052137;28;20240;-52
2022/12/24 12:18:08;;;;;;;30.93;7.63;;;8.60;99.90;;;;;;5049174;28;20232;-49
2022/12/24 12:20:40;;;;;;;30.80;7.77;;;8.70;99.90;;;;;;5051872;28;20243;-50
2022/12/24 12:23:16;;;;;;;36.47;8.00;;;8.70;99.90;;;;;;5051994;28;20224;-49
2022/12/24 12:25:50;;;;;;;30.53;7.60;;;8.70;99.90;;;;;;5052265;28;20807;-50
2022/12/24 12:28:22;;;;;;;25.97;7.47;;;8.80;99.90;;;;;;5052320;28;20643;-51
2022/12/24 12:31:00;;;;;;;32.77;7.50;;;8.90;99.90;;;;;;5051439;28;20224;-51
2022/12/24 12:33:35;;;;;;;24.07;7.23;;;8.90;99.90;;;;;;5051116;28;20575;-48
2022/12/24 12:36:04;;;;;;;24.87;7.17;;;8.90;99.90;;;;;;5051287;28;20223;-48
2022/12/24 12:38:34;;;;;;;26.97;7.70;;;9.00;99.90;;;;;;5051572;28;20219;-49
2022/12/24 12:41:18;;;;;;;30.40;7.23;;;8.90;99.90;;;;;;5051051;28;20227;-52
2022/12/24 12:44:26;;;;;;;28.43;7.03;;;9.00;99.90;;;;;;5043862;28;20224;-52
2022/12/24 12:47:10;;;;;;;25.17;7.43;;;9.00;99.90;;;;;;5052215;28;20232;-51
2022/12/24 12:49:50;;;;;;;26.27;6.30;;;9.00;99.90;;;;;;5052073;28;20228;-51
2022/12/24 12:52:29;;;;;;;29.40;7.57;;;9.00;99.90;;;;;;5051094;28;20239;-51
2022/12/24 12:55:18;;;;;;;26.97;6.07;;;8.90;99.90;;;;;;5049823;28;20315;-50
2022/12/24 12:57:54;;;;;;;26.83;6.47;;;8.90;99.90;;;;;;5050409;28;20235;-52
2022/12/24 13:00:23;;;;;;;25.20;6.27;;;8.80;99.90;;;;;;5050328;28;20220;-50
2022/12/24 13:03:03;;;;;;;26.63;6.27;;;8.80;99.90;;;;;;5055260;28;20326;-50
2022/12/24 13:06:00;;;;;;;24.73;6.47;;;8.90;99.90;;;;;;5054249;28;20265;-50